createdAt,value
2023-05-05T00:00:29.459Z,596.00
2023-05-05T00:00:59.457Z,596.00
2023-05-05T00:01:29.570Z,594.00
2023-05-05T00:01:59.588Z,594.00
2023-05-05T00:02:59.830Z,596.00
2023-05-05T00:03:29.725Z,597.00
2023-05-05T00:03:59.753Z,597.00
2023-05-05T00:04:29.735Z,595.00
2023-05-05T00:04:59.853Z,593.00
2023-05-05T00:05:29.951Z,592.00
2023-05-05T00:06:00.041Z,590.00
2023-05-05T00:06:30.107Z,591.00
2023-05-05T00:07:00.190Z,590.00
2023-05-05T00:07:30.301Z,592.00
2023-05-05T00:08:00.378Z,593.00
2023-05-05T00:08:30.452Z,593.00
2023-05-05T00:09:00.532Z,594.00
2023-05-05T00:09:30.617Z,595.00
2023-05-05T00:10:00.692Z,598.00
2023-05-05T00:10:30.782Z,597.00
2023-05-05T00:11:00.871Z,597.00
2023-05-05T00:11:30.949Z,598.00
2023-05-05T00:12:01.032Z,598.00
2023-05-05T00:12:31.149Z,597.00
2023-05-05T00:13:01.221Z,598.00
2023-05-05T00:13:31.289Z,598.00
2023-05-05T00:14:01.375Z,598.00
2023-05-05T00:14:31.465Z,598.00
2023-05-05T00:15:01.540Z,598.00
2023-05-05T00:15:31.667Z,598.00
2023-05-05T00:16:01.684Z,596.00
2023-05-05T00:17:01.792Z,594.00
2023-05-05T00:17:31.771Z,593.00
2023-05-05T00:18:02.038Z,591.00
2023-05-05T00:18:31.932Z,593.00
2023-05-05T00:19:02.047Z,593.00
2023-05-05T00:19:32.039Z,591.00
2023-05-05T00:20:32.136Z,592.00
2023-05-05T00:21:02.117Z,591.00
2023-05-05T00:21:32.231Z,591.00
2023-05-05T00:22:02.348Z,593.00
2023-05-05T00:22:32.473Z,592.00
2023-05-05T00:23:02.599Z,593.00
2023-05-05T00:23:32.582Z,592.00
2023-05-05T00:24:32.700Z,590.00
2023-05-05T00:25:02.699Z,589.00
2023-05-05T00:25:32.704Z,590.00
2023-05-05T00:26:32.771Z,591.00
2023-05-05T00:27:02.773Z,591.00
2023-05-05T00:27:32.893Z,590.00
2023-05-05T00:28:03.001Z,590.00
2023-05-05T00:28:33.020Z,587.00
2023-05-05T00:29:33.079Z,587.00
2023-05-05T00:30:03.069Z,587.00
2023-05-05T00:30:33.089Z,587.00
2023-05-05T00:31:03.174Z,587.00
2023-05-05T00:31:33.145Z,588.00
2023-05-05T00:32:03.138Z,588.00
2023-05-05T00:32:33.236Z,589.00
2023-05-05T00:33:03.402Z,592.00
2023-05-05T00:33:33.405Z,592.00
2023-05-05T00:34:03.522Z,591.00
2023-05-05T00:34:33.634Z,593.00
2023-05-05T00:35:03.755Z,592.00
2023-05-05T00:35:33.768Z,592.00
2023-05-05T00:36:03.761Z,592.00
2023-05-05T00:36:33.869Z,594.00
2023-05-05T00:37:03.875Z,594.00
2023-05-05T00:38:03.950Z,594.00
2023-05-05T00:38:33.950Z,593.00
2023-05-05T00:39:04.064Z,592.00
2023-05-05T00:39:34.180Z,591.00
2023-05-05T00:40:04.313Z,592.00
2023-05-05T00:40:34.304Z,593.00
2023-05-05T00:41:04.299Z,592.00
2023-05-05T00:41:34.424Z,591.00
2023-05-05T00:42:04.541Z,592.00
2023-05-05T00:42:34.532Z,591.00
2023-05-05T00:43:04.654Z,593.00
2023-05-05T00:43:34.766Z,593.00
2023-05-05T00:44:04.766Z,595.00
2023-05-05T00:45:04.853Z,595.00
2023-05-05T00:45:34.852Z,595.00
2023-05-05T00:46:34.947Z,595.00
2023-05-05T00:47:04.963Z,594.00
2023-05-05T00:47:34.962Z,593.00
2023-05-05T00:48:35.036Z,592.00
2023-05-05T00:49:05.047Z,592.00
2023-05-05T00:49:35.060Z,593.00
2023-05-05T00:50:05.128Z,595.00
2023-05-05T00:50:35.077Z,596.00
2023-05-05T00:51:05.066Z,597.00
2023-05-05T00:51:35.183Z,597.00
2023-05-05T00:52:05.176Z,595.00
2023-05-05T00:53:05.261Z,593.00
2023-05-05T00:53:35.370Z,592.00
2023-05-05T00:54:05.487Z,592.00
2023-05-05T00:54:35.483Z,588.00
2023-05-05T00:55:05.602Z,590.00
2023-05-05T00:55:35.733Z,589.00
2023-05-05T00:56:05.712Z,589.00
2023-05-05T00:56:35.828Z,589.00
2023-05-05T00:57:05.943Z,588.00
2023-05-05T00:57:35.940Z,588.00
2023-05-05T00:58:36.022Z,587.00
2023-05-05T00:59:06.017Z,587.00
2023-05-05T01:00:06.408Z,587.00
2023-05-05T01:00:36.242Z,587.00
2023-05-05T01:01:06.243Z,588.00
2023-05-05T01:01:36.406Z,589.00
2023-05-05T01:02:06.424Z,590.00
2023-05-05T01:02:36.596Z,592.00
2023-05-05T01:03:06.721Z,592.00
2023-05-05T01:03:36.726Z,592.00
2023-05-05T01:04:06.869Z,590.00
2023-05-05T01:04:36.747Z,590.00
2023-05-05T01:05:06.765Z,589.00
2023-05-05T01:05:36.841Z,588.00
2023-05-05T01:06:06.913Z,590.00
2023-05-05T01:06:37.013Z,590.00
2023-05-05T01:07:07.106Z,590.00
2023-05-05T01:07:37.169Z,590.00
2023-05-05T01:08:07.276Z,589.00
2023-05-05T01:08:37.334Z,588.00
2023-05-05T01:09:07.427Z,588.00
2023-05-05T01:09:37.486Z,590.00
2023-05-05T01:10:19.062Z,590.00
2023-05-05T01:10:37.682Z,589.00
2023-05-05T01:11:07.794Z,589.00
2023-05-05T01:11:37.869Z,588.00
2023-05-05T01:12:07.956Z,589.00
2023-05-05T01:12:38.105Z,591.00
2023-05-05T01:13:08.132Z,592.00
2023-05-05T01:13:38.134Z,593.00
2023-05-05T01:14:08.209Z,593.00
2023-05-05T01:14:38.293Z,593.00
2023-05-05T01:15:08.372Z,593.00
2023-05-05T01:15:38.493Z,594.00
2023-05-05T01:16:08.557Z,592.00
2023-05-05T01:16:38.621Z,591.00
2023-05-05T01:17:08.588Z,591.00
2023-05-05T01:17:38.605Z,589.00
2023-05-05T01:18:08.622Z,588.00
2023-05-05T01:18:38.716Z,588.00
2023-05-05T01:19:08.722Z,588.00
2023-05-05T01:20:08.991Z,589.00
2023-05-05T01:20:38.867Z,590.00
2023-05-05T01:21:08.859Z,590.00
2023-05-05T01:21:38.975Z,589.00
2023-05-05T01:22:09.089Z,589.00
2023-05-05T01:22:39.214Z,590.00
2023-05-05T01:23:09.203Z,590.00
2023-05-05T01:24:09.373Z,590.00
2023-05-05T01:24:39.393Z,590.00
2023-05-05T01:25:09.370Z,590.00
2023-05-05T01:25:39.495Z,590.00
2023-05-05T01:26:09.489Z,591.00
2023-05-05T01:27:09.572Z,589.00
2023-05-05T01:27:39.564Z,587.00
2023-05-05T01:28:39.636Z,586.00
2023-05-05T01:29:09.627Z,586.00
2023-05-05T01:30:09.886Z,584.00
2023-05-05T01:30:39.809Z,585.00
2023-05-05T01:31:09.837Z,586.00
2023-05-05T01:31:39.873Z,586.00
2023-05-05T01:32:09.845Z,586.00
2023-05-05T01:32:39.859Z,585.00
2023-05-05T01:33:39.947Z,584.00
2023-05-05T01:34:09.915Z,584.00
2023-05-05T01:35:10.004Z,586.00
2023-05-05T01:35:40.101Z,585.00
2023-05-05T01:36:10.096Z,584.00
2023-05-05T01:36:40.216Z,585.00
2023-05-05T01:37:10.331Z,586.00
2023-05-05T01:37:40.453Z,587.00
2023-05-05T01:38:10.446Z,587.00
2023-05-05T01:38:40.580Z,586.00
2023-05-05T01:39:10.568Z,586.00
2023-05-05T01:39:40.685Z,587.00
2023-05-05T01:40:10.807Z,587.00
2023-05-05T01:40:40.930Z,586.00
2023-05-05T01:41:10.929Z,587.00
2023-05-05T01:42:10.987Z,587.00
2023-05-05T01:42:41.113Z,586.00
2023-05-05T01:43:11.114Z,587.00
2023-05-05T01:43:41.228Z,587.00
2023-05-05T01:44:11.333Z,585.00
2023-05-05T01:44:41.329Z,585.00
2023-05-05T01:45:41.497Z,584.00
2023-05-05T01:46:11.568Z,583.00
2023-05-05T01:46:41.593Z,584.00
2023-05-05T01:47:11.710Z,583.00
2023-05-05T01:47:41.859Z,584.00
2023-05-05T01:48:11.837Z,583.00
2023-05-05T01:48:42.393Z,582.00
2023-05-05T01:49:12.097Z,584.00
2023-05-05T01:49:42.071Z,584.00
2023-05-05T01:50:12.199Z,583.00
2023-05-05T01:50:42.311Z,582.00
2023-05-05T01:51:12.303Z,582.00
2023-05-05T01:52:12.374Z,581.00
2023-05-05T01:52:42.502Z,583.00
2023-05-05T01:53:12.608Z,582.00
2023-05-05T01:53:42.602Z,583.00
2023-05-05T01:54:12.743Z,585.00
2023-05-05T01:54:42.721Z,584.00
2023-05-05T01:55:42.806Z,585.00
2023-05-05T01:56:12.911Z,583.00
2023-05-05T01:56:43.028Z,583.00
2023-05-05T01:57:13.145Z,582.00
2023-05-05T01:57:43.150Z,583.00
2023-05-05T01:58:13.256Z,582.00
2023-05-05T01:58:43.250Z,583.00
2023-05-05T01:59:13.375Z,582.00
2023-05-05T01:59:43.498Z,582.00
2023-05-05T02:00:13.607Z,582.00
2023-05-05T02:00:43.744Z,583.00
2023-05-05T02:01:13.769Z,583.00
2023-05-05T02:01:43.809Z,583.00
2023-05-05T02:02:13.783Z,584.00
2023-05-05T02:02:43.800Z,586.00
2023-05-05T02:03:13.853Z,587.00
2023-05-05T02:03:43.803Z,588.00
2023-05-05T02:04:13.798Z,587.00
2023-05-05T02:04:43.864Z,588.00
2023-05-05T02:05:13.944Z,587.00
2023-05-05T02:05:44.024Z,587.00
2023-05-05T02:06:14.106Z,586.00
2023-05-05T02:06:44.183Z,587.00
2023-05-05T02:07:14.258Z,586.00
2023-05-05T02:07:44.337Z,587.00
2023-05-05T02:08:14.415Z,587.00
2023-05-05T02:08:44.497Z,587.00
2023-05-05T02:09:14.585Z,587.00
2023-05-05T02:09:44.661Z,587.00
2023-05-05T02:10:14.733Z,587.00
2023-05-05T02:10:44.827Z,587.00
2023-05-05T02:11:14.923Z,588.00
2023-05-05T02:11:44.989Z,587.00
2023-05-05T02:12:15.072Z,587.00
2023-05-05T02:12:45.187Z,587.00
2023-05-05T02:13:15.399Z,587.00
2023-05-05T02:13:45.320Z,586.00
2023-05-05T02:14:15.413Z,586.00
2023-05-05T02:14:45.493Z,585.00
2023-05-05T02:15:15.593Z,583.00
2023-05-05T02:15:45.764Z,584.00
2023-05-05T02:16:15.852Z,582.00
2023-05-05T02:16:45.876Z,581.00
2023-05-05T02:17:15.995Z,581.00
2023-05-05T02:17:46.159Z,581.00
2023-05-05T02:18:16.133Z,581.00
2023-05-05T02:18:46.263Z,582.00
2023-05-05T02:19:16.369Z,585.00
2023-05-05T02:19:46.514Z,586.00
2023-05-05T02:20:16.497Z,586.00
2023-05-05T02:20:46.610Z,586.00
2023-05-05T02:21:16.600Z,587.00
2023-05-05T02:21:46.718Z,587.00
2023-05-05T02:22:16.754Z,587.00
2023-05-05T02:22:46.760Z,586.00
2023-05-05T02:23:16.876Z,586.00
2023-05-05T02:23:46.881Z,586.00
2023-05-05T02:24:46.953Z,586.00
2023-05-05T02:25:16.946Z,586.00
2023-05-05T02:25:47.033Z,585.00
2023-05-05T02:26:17.037Z,586.00
2023-05-05T02:26:47.134Z,587.00
2023-05-05T02:27:17.134Z,588.00
2023-05-05T02:28:17.215Z,588.00
2023-05-05T02:28:47.220Z,587.00
2023-05-05T02:29:47.290Z,587.00
2023-05-05T02:30:17.293Z,587.00
2023-05-05T02:31:17.373Z,589.00
2023-05-05T02:31:47.543Z,587.00
2023-05-05T02:32:17.576Z,585.00
2023-05-05T02:32:47.713Z,583.00
2023-05-05T02:33:17.723Z,582.00
2023-05-05T02:33:47.842Z,581.00
2023-05-05T02:34:17.849Z,582.00
2023-05-05T02:34:47.965Z,584.00
2023-05-05T02:35:18.104Z,586.00
2023-05-05T02:35:48.203Z,588.00
2023-05-05T02:36:18.193Z,585.00
2023-05-05T02:36:48.312Z,582.00
2023-05-05T02:37:18.428Z,582.00
2023-05-05T02:37:48.458Z,582.00
2023-05-05T02:38:18.573Z,583.00
2023-05-05T02:38:48.569Z,583.00
2023-05-05T02:39:48.635Z,584.00
2023-05-05T02:40:18.774Z,584.00
2023-05-05T02:40:48.874Z,585.00
2023-05-05T02:41:18.869Z,585.00
2023-05-05T02:42:18.941Z,585.00
2023-05-05T02:42:49.076Z,586.00
2023-05-05T02:43:19.098Z,586.00
2023-05-05T02:43:49.076Z,587.00
2023-05-05T02:44:19.071Z,587.00
2023-05-05T02:45:19.158Z,587.00
2023-05-05T02:45:49.277Z,586.00
2023-05-05T02:46:19.339Z,587.00
2023-05-05T02:46:49.420Z,588.00
2023-05-05T02:47:19.414Z,587.00
2023-05-05T02:47:49.581Z,587.00
2023-05-05T02:48:19.628Z,588.00
2023-05-05T02:48:49.733Z,586.00
2023-05-05T02:49:19.726Z,588.00
2023-05-05T02:49:49.843Z,586.00
2023-05-05T02:50:19.860Z,587.00
2023-05-05T02:50:49.959Z,588.00
2023-05-05T02:51:20.072Z,590.00
2023-05-05T02:51:50.072Z,590.00
2023-05-05T02:52:20.099Z,588.00
2023-05-05T02:52:50.220Z,588.00
2023-05-05T02:53:20.341Z,588.00
2023-05-05T02:53:50.334Z,587.00
2023-05-05T02:54:20.334Z,588.00
2023-05-05T02:54:50.449Z,587.00
2023-05-05T02:55:20.559Z,587.00
2023-05-05T02:55:50.690Z,588.00
2023-05-05T02:56:20.684Z,587.00
2023-05-05T02:56:50.809Z,587.00
2023-05-05T02:57:20.808Z,586.00
2023-05-05T02:57:50.911Z,588.00
2023-05-05T02:58:20.903Z,588.00
2023-05-05T02:58:51.016Z,585.00
2023-05-05T02:59:21.036Z,585.00
2023-05-05T02:59:51.137Z,586.00
2023-05-05T03:00:21.250Z,587.00
2023-05-05T03:00:51.370Z,588.00
2023-05-05T03:01:21.424Z,591.00
2023-05-05T03:01:51.532Z,592.00
2023-05-05T03:02:21.433Z,590.00
2023-05-05T03:02:51.526Z,591.00
2023-05-05T03:03:21.461Z,591.00
2023-05-05T03:03:51.631Z,589.00
2023-05-05T03:04:21.561Z,588.00
2023-05-05T03:04:51.679Z,588.00
2023-05-05T03:05:21.794Z,589.00
2023-05-05T03:05:51.852Z,589.00
2023-05-05T03:06:21.940Z,588.00
2023-05-05T03:06:52.013Z,588.00
2023-05-05T03:07:22.088Z,588.00
2023-05-05T03:07:52.166Z,587.00
2023-05-05T03:08:22.248Z,587.00
2023-05-05T03:08:52.334Z,587.00
2023-05-05T03:09:22.406Z,589.00
2023-05-05T03:09:52.482Z,587.00
2023-05-05T03:10:22.565Z,588.00
2023-05-05T03:10:52.648Z,586.00
2023-05-05T03:11:22.723Z,586.00
2023-05-05T03:11:52.805Z,585.00
2023-05-05T03:12:22.891Z,587.00
2023-05-05T03:12:52.998Z,588.00
2023-05-05T03:13:23.063Z,588.00
2023-05-05T03:13:53.141Z,586.00
2023-05-05T03:14:23.214Z,587.00
2023-05-05T03:14:53.302Z,588.00
2023-05-05T03:15:23.401Z,587.00
2023-05-05T03:15:53.442Z,587.00
2023-05-05T03:16:23.499Z,588.00
2023-05-05T03:16:53.511Z,589.00
2023-05-05T03:17:23.523Z,589.00
2023-05-05T03:17:53.565Z,589.00
2023-05-05T03:18:23.544Z,589.00
2023-05-05T03:18:53.671Z,589.00
2023-05-05T03:19:23.670Z,587.00
2023-05-05T03:19:53.782Z,589.00
2023-05-05T03:20:23.930Z,590.00
2023-05-05T03:20:53.912Z,590.00
2023-05-05T03:21:53.986Z,588.00
2023-05-05T03:22:24.107Z,588.00
2023-05-05T03:22:54.223Z,587.00
2023-05-05T03:23:24.225Z,588.00
2023-05-05T03:23:54.333Z,587.00
2023-05-05T03:24:24.455Z,586.00
2023-05-05T03:24:54.569Z,585.00
2023-05-05T03:25:24.739Z,586.00
2023-05-05T03:25:54.721Z,585.00
2023-05-05T03:26:54.789Z,583.00
2023-05-05T03:27:24.910Z,586.00
2023-05-05T03:27:54.896Z,587.00
2023-05-05T03:28:25.015Z,587.00
2023-05-05T03:28:55.135Z,587.00
2023-05-05T03:29:25.251Z,587.00
2023-05-05T03:29:55.252Z,588.00
2023-05-05T03:30:25.257Z,588.00
2023-05-05T03:31:25.366Z,585.00
2023-05-05T03:31:55.403Z,585.00
2023-05-05T03:32:25.390Z,585.00
2023-05-05T03:32:55.485Z,585.00
2023-05-05T03:33:25.488Z,583.00
2023-05-05T03:33:55.607Z,583.00
2023-05-05T03:34:25.727Z,583.00
2023-05-05T03:34:55.717Z,582.00
2023-05-05T03:35:25.760Z,582.00
2023-05-05T03:35:55.730Z,582.00
2023-05-05T03:36:55.808Z,583.00
2023-05-05T03:37:25.932Z,583.00
2023-05-05T03:37:56.044Z,582.00
2023-05-05T03:38:26.160Z,581.00
2023-05-05T03:38:56.157Z,581.00
2023-05-05T03:39:26.265Z,580.00
2023-05-05T03:39:56.272Z,579.00
2023-05-05T03:40:36.313Z,579.00
2023-05-05T03:40:56.428Z,580.00
2023-05-05T03:41:26.558Z,582.00
2023-05-05T03:41:56.537Z,583.00
2023-05-05T03:42:26.656Z,582.00
2023-05-05T03:42:56.770Z,584.00
2023-05-05T03:43:26.771Z,584.00
2023-05-05T03:43:56.880Z,582.00
2023-05-05T03:44:26.999Z,582.00
2023-05-05T03:44:57.138Z,582.00
2023-05-05T03:45:27.305Z,581.00
2023-05-05T03:45:57.271Z,582.00
2023-05-05T03:46:27.296Z,584.00
2023-05-05T03:46:57.270Z,584.00
2023-05-05T03:47:27.432Z,585.00
2023-05-05T03:47:57.450Z,585.00
2023-05-05T03:48:27.545Z,585.00
2023-05-05T03:48:57.658Z,584.00
2023-05-05T03:49:27.664Z,582.00
2023-05-05T03:49:57.777Z,581.00
2023-05-05T03:50:27.938Z,581.00
2023-05-05T03:50:57.907Z,580.00
2023-05-05T03:51:58.044Z,580.00
2023-05-05T03:52:28.021Z,581.00
2023-05-05T03:53:28.099Z,580.00
2023-05-05T03:53:58.220Z,581.00
2023-05-05T03:54:28.332Z,580.00
2023-05-05T03:54:58.331Z,578.00
2023-05-05T03:55:28.459Z,579.00
2023-05-05T03:55:58.454Z,579.00
2023-05-05T03:56:58.526Z,579.00
2023-05-05T03:57:28.639Z,580.00
2023-05-05T03:57:58.638Z,581.00
2023-05-05T03:58:28.756Z,581.00
2023-05-05T03:58:58.759Z,581.00
2023-05-05T03:59:28.869Z,580.00
2023-05-05T03:59:58.870Z,579.00
2023-05-05T04:00:29.022Z,579.00
2023-05-05T04:00:59.032Z,580.00
2023-05-05T04:01:29.010Z,580.00
2023-05-05T04:01:59.142Z,580.00
2023-05-05T04:02:29.181Z,580.00
2023-05-05T04:02:59.230Z,579.00
2023-05-05T04:03:29.314Z,578.00
2023-05-05T04:03:59.362Z,579.00
2023-05-05T04:04:29.438Z,580.00
2023-05-05T04:04:59.438Z,579.00
2023-05-05T04:05:29.556Z,580.00
2023-05-05T04:05:59.653Z,579.00
2023-05-05T04:06:29.699Z,580.00
2023-05-05T04:06:59.788Z,581.00
2023-05-05T04:07:29.894Z,583.00
2023-05-05T04:07:59.968Z,582.00
2023-05-05T04:08:30.047Z,583.00
2023-05-05T04:09:00.169Z,583.00
2023-05-05T04:09:30.241Z,584.00
2023-05-05T04:10:00.359Z,583.00
2023-05-05T04:10:30.469Z,584.00
2023-05-05T04:11:00.555Z,583.00
2023-05-05T04:11:30.631Z,582.00
2023-05-05T04:12:00.719Z,582.00
2023-05-05T04:12:30.822Z,582.00
2023-05-05T04:13:00.987Z,581.00
2023-05-05T04:13:30.915Z,581.00
2023-05-05T04:14:00.995Z,580.00
2023-05-05T04:14:31.075Z,580.00
2023-05-05T04:15:01.164Z,578.00
2023-05-05T04:15:31.292Z,577.00
2023-05-05T04:16:01.367Z,577.00
2023-05-05T04:16:31.405Z,577.00
2023-05-05T04:17:01.399Z,576.00
2023-05-05T04:17:31.424Z,576.00
2023-05-05T04:18:01.435Z,577.00
2023-05-05T04:18:31.444Z,578.00
2023-05-05T04:19:01.550Z,578.00
2023-05-05T04:19:31.545Z,580.00
2023-05-05T04:20:01.747Z,581.00
2023-05-05T04:20:31.751Z,583.00
2023-05-05T04:21:01.747Z,582.00
2023-05-05T04:21:31.771Z,583.00
2023-05-05T04:22:31.847Z,585.00
2023-05-05T04:23:01.836Z,585.00
2023-05-05T04:23:31.959Z,585.00
2023-05-05T04:24:01.949Z,587.00
2023-05-05T04:24:32.070Z,586.00
2023-05-05T04:25:02.188Z,586.00
2023-05-05T04:25:32.330Z,586.00
2023-05-05T04:26:02.329Z,586.00
2023-05-05T04:27:02.391Z,586.00
2023-05-05T04:27:32.613Z,588.00
2023-05-05T04:28:02.614Z,587.00
2023-05-05T04:28:32.737Z,586.00
2023-05-05T04:29:02.856Z,586.00
2023-05-05T04:29:32.846Z,584.00
2023-05-05T04:30:02.977Z,584.00
2023-05-05T04:30:33.106Z,586.00
2023-05-05T04:31:03.140Z,585.00
2023-05-05T04:31:33.152Z,584.00
2023-05-05T04:32:03.151Z,585.00
2023-05-05T04:32:33.310Z,585.00
2023-05-05T04:33:03.365Z,585.00
2023-05-05T04:33:33.363Z,586.00
2023-05-05T04:34:03.360Z,588.00
2023-05-05T04:34:33.540Z,587.00
2023-05-05T04:35:03.546Z,588.00
2023-05-05T04:35:33.546Z,586.00
2023-05-05T04:36:03.574Z,585.00
2023-05-05T04:36:33.557Z,584.00
2023-05-05T04:37:03.581Z,583.00
2023-05-05T04:37:33.667Z,582.00
2023-05-05T04:38:03.786Z,584.00
2023-05-05T04:38:33.918Z,583.00
2023-05-05T04:39:03.922Z,585.00
2023-05-05T04:39:33.917Z,585.00
2023-05-05T04:40:33.998Z,583.00
2023-05-05T04:41:03.996Z,583.00
2023-05-05T04:41:34.107Z,583.00
2023-05-05T04:42:04.117Z,583.00
2023-05-05T04:42:34.101Z,582.00
2023-05-05T04:43:04.220Z,585.00
2023-05-05T04:43:34.222Z,586.00
2023-05-05T04:44:04.350Z,587.00
2023-05-05T04:44:34.333Z,587.00
2023-05-05T04:45:04.461Z,588.00
2023-05-05T04:45:34.592Z,588.00
2023-05-05T04:46:04.639Z,587.00
2023-05-05T04:46:34.748Z,586.00
2023-05-05T04:47:04.653Z,587.00
2023-05-05T04:47:34.773Z,587.00
2023-05-05T04:48:04.817Z,587.00
2023-05-05T04:48:34.792Z,589.00
2023-05-05T04:49:04.788Z,588.00
2023-05-05T04:50:04.893Z,586.00
2023-05-05T04:50:34.942Z,587.00
2023-05-05T04:51:04.934Z,586.00
2023-05-05T04:52:05.015Z,585.00
2023-05-05T04:52:35.152Z,583.00
2023-05-05T04:53:05.248Z,582.00
2023-05-05T04:53:35.240Z,581.00
2023-05-05T04:54:05.282Z,580.00
2023-05-05T04:54:35.285Z,580.00
2023-05-05T04:55:05.292Z,581.00
2023-05-05T04:55:35.284Z,582.00
2023-05-05T04:56:35.360Z,585.00
2023-05-05T04:57:05.479Z,586.00
2023-05-05T04:57:35.603Z,587.00
2023-05-05T04:58:05.714Z,591.00
2023-05-05T04:58:35.715Z,590.00
2023-05-05T04:59:35.795Z,589.00
2023-05-05T05:00:05.891Z,590.00
2023-05-05T05:00:35.936Z,592.00
2023-05-05T05:01:05.919Z,593.00
2023-05-05T05:02:06.042Z,593.00
2023-05-05T05:02:36.128Z,592.00
2023-05-05T05:03:06.230Z,591.00
2023-05-05T05:03:36.285Z,592.00
2023-05-05T05:04:06.319Z,594.00
2023-05-05T05:04:36.250Z,596.00
2023-05-05T05:05:06.361Z,597.00
2023-05-05T05:05:36.473Z,597.00
2023-05-05T05:06:06.553Z,598.00
2023-05-05T05:06:36.631Z,598.00
2023-05-05T05:07:06.728Z,598.00
2023-05-05T05:07:36.810Z,599.00
2023-05-05T05:08:06.871Z,597.00
2023-05-05T05:08:36.948Z,599.00
2023-05-05T05:09:07.050Z,600.00
2023-05-05T05:09:37.104Z,601.00
2023-05-05T05:10:07.581Z,601.00
2023-05-05T05:10:37.261Z,602.00
2023-05-05T05:11:07.245Z,603.00
2023-05-05T05:11:37.306Z,602.00
2023-05-05T05:12:07.381Z,601.00
2023-05-05T05:12:37.472Z,612.00
2023-05-05T05:13:07.585Z,624.00
2023-05-05T05:13:37.572Z,614.00
2023-05-05T05:14:07.653Z,610.00
2023-05-05T05:14:37.735Z,609.00
2023-05-05T05:15:07.816Z,612.00
2023-05-05T05:15:37.872Z,615.00
2023-05-05T05:16:07.978Z,616.00
2023-05-05T05:17:07.955Z,618.00
2023-05-05T05:17:37.972Z,618.00
2023-05-05T05:18:08.014Z,619.00
2023-05-05T05:18:38.007Z,620.00
2023-05-05T05:19:08.013Z,620.00
2023-05-05T05:19:38.004Z,618.00
2023-05-05T05:20:38.124Z,616.00
2023-05-05T05:21:08.127Z,614.00
2023-05-05T05:21:38.107Z,615.00
2023-05-05T05:22:08.117Z,613.00
2023-05-05T05:22:38.121Z,608.00
2023-05-05T05:23:08.143Z,604.00
2023-05-05T05:23:38.128Z,603.00
2023-05-05T05:24:08.145Z,604.00
2023-05-05T05:24:38.285Z,603.00
2023-05-05T05:25:08.293Z,601.00
2023-05-05T05:25:38.322Z,597.00
2023-05-05T05:26:08.319Z,596.00
2023-05-05T05:26:38.428Z,592.00
2023-05-05T05:27:10.007Z,590.00
2023-05-05T05:27:38.560Z,589.00
2023-05-05T05:28:10.756Z,587.00
2023-05-05T05:28:38.678Z,586.00
2023-05-05T05:29:08.719Z,588.00
2023-05-05T05:29:38.751Z,587.00
2023-05-05T05:30:09.005Z,585.00
2023-05-05T05:30:38.781Z,584.00
2023-05-05T05:31:08.792Z,581.00
2023-05-05T05:31:38.813Z,578.00
2023-05-05T05:32:09.061Z,576.00
2023-05-05T05:32:38.963Z,576.00
2023-05-05T05:33:09.071Z,576.00
2023-05-05T05:33:39.081Z,578.00
2023-05-05T05:34:10.307Z,581.00
2023-05-05T05:34:39.161Z,581.00
2023-05-05T05:35:09.289Z,581.00
2023-05-05T05:35:39.305Z,582.00
2023-05-05T05:36:09.315Z,584.00
2023-05-05T05:37:09.396Z,586.00
2023-05-05T05:37:39.387Z,584.00
2023-05-05T05:38:09.525Z,582.00
2023-05-05T05:38:39.524Z,582.00
2023-05-05T05:39:41.924Z,585.00
2023-05-05T05:40:09.770Z,583.00
2023-05-05T05:40:39.674Z,581.00
2023-05-05T05:41:09.667Z,579.00
2023-05-05T05:42:09.665Z,577.00
2023-05-05T05:42:39.668Z,578.00
2023-05-05T05:43:09.670Z,579.00
2023-05-05T05:44:09.741Z,582.00
2023-05-05T05:44:39.736Z,585.00
2023-05-05T05:45:09.755Z,586.00
2023-05-05T05:45:39.792Z,588.00
2023-05-05T05:46:09.820Z,589.00
2023-05-05T05:46:39.898Z,591.00
2023-05-05T05:47:09.843Z,594.00
2023-05-05T05:47:39.878Z,595.00
2023-05-05T05:48:09.909Z,597.00
2023-05-05T05:48:39.935Z,600.00
2023-05-05T05:49:10.087Z,601.00
2023-05-05T05:49:40.061Z,600.00
2023-05-05T05:50:10.346Z,600.00
2023-05-05T05:50:40.179Z,600.00
2023-05-05T05:51:10.173Z,601.00
2023-05-05T05:51:40.297Z,602.00
2023-05-05T05:52:10.293Z,603.00
2023-05-05T05:53:10.372Z,608.00
2023-05-05T05:53:40.489Z,610.00
2023-05-05T05:54:10.623Z,609.00
2023-05-05T05:54:40.601Z,609.00
2023-05-05T05:55:10.717Z,608.00
2023-05-05T05:55:40.842Z,608.00
2023-05-05T05:56:10.841Z,608.00
2023-05-05T05:57:10.931Z,607.00
2023-05-05T05:57:41.054Z,611.00
2023-05-05T05:58:11.048Z,612.00
2023-05-05T05:59:11.132Z,616.00
2023-05-05T05:59:41.131Z,616.00
2023-05-05T06:00:11.403Z,618.00
2023-05-05T06:00:41.355Z,619.00
2023-05-05T06:01:11.344Z,622.00
2023-05-05T06:01:41.468Z,623.00
2023-05-05T06:02:11.504Z,625.00
2023-05-05T06:02:41.657Z,630.00
2023-05-05T06:03:11.652Z,629.00
2023-05-05T06:03:41.776Z,629.00
2023-05-05T06:04:11.771Z,630.00
2023-05-05T06:04:41.790Z,634.00
2023-05-05T06:05:11.812Z,634.00
2023-05-05T06:05:41.935Z,636.00
2023-05-05T06:06:11.899Z,643.00
2023-05-05T06:06:41.970Z,647.00
2023-05-05T06:07:12.048Z,648.00
2023-05-05T06:07:42.128Z,652.00
2023-05-05T06:08:12.221Z,656.00
2023-05-05T06:08:42.305Z,660.00
2023-05-05T06:09:12.413Z,665.00
2023-05-05T06:09:42.471Z,665.00
2023-05-05T06:10:26.763Z,662.00
2023-05-05T06:10:42.558Z,660.00
2023-05-05T06:11:12.654Z,662.00
2023-05-05T06:11:42.717Z,663.00
2023-05-05T06:12:12.804Z,663.00
2023-05-05T06:12:42.921Z,664.00
2023-05-05T06:13:13.177Z,665.00
2023-05-05T06:13:43.057Z,666.00
2023-05-05T06:14:13.128Z,669.00
2023-05-05T06:14:43.219Z,669.00
2023-05-05T06:15:13.321Z,668.00
2023-05-05T06:15:43.361Z,667.00
2023-05-05T06:16:13.422Z,667.00
2023-05-05T06:16:43.486Z,668.00
2023-05-05T06:17:13.496Z,671.00
2023-05-05T06:18:13.616Z,675.00
2023-05-05T06:18:43.613Z,676.00
2023-05-05T06:19:13.613Z,678.00
2023-05-05T06:20:13.714Z,680.00
2023-05-05T06:20:43.696Z,681.00
2023-05-05T06:21:13.818Z,680.00
2023-05-05T06:21:43.817Z,680.00
2023-05-05T06:22:13.814Z,682.00
2023-05-05T06:23:13.910Z,681.00
2023-05-05T06:23:43.896Z,686.00
2023-05-05T06:24:44.002Z,692.00
2023-05-05T06:25:13.980Z,691.00
2023-05-05T06:26:14.052Z,692.00
2023-05-05T06:26:44.048Z,693.00
2023-05-05T06:27:14.067Z,693.00
2023-05-05T06:27:44.071Z,694.00
2023-05-05T06:28:44.149Z,695.00
2023-05-05T06:29:14.285Z,695.00
2023-05-05T06:29:44.390Z,693.00
2023-05-05T06:30:14.394Z,695.00
2023-05-05T06:31:14.509Z,692.00
2023-05-05T06:31:44.534Z,693.00
2023-05-05T06:32:14.540Z,697.00
2023-05-05T06:32:44.557Z,700.00
2023-05-05T06:33:44.638Z,704.00
2023-05-05T06:34:14.617Z,705.00
2023-05-05T06:34:44.648Z,707.00
2023-05-05T06:35:14.640Z,706.00
2023-05-05T06:36:14.776Z,704.00
2023-05-05T06:36:44.811Z,703.00
2023-05-05T06:37:14.817Z,702.00
2023-05-05T06:37:44.807Z,701.00
2023-05-05T06:38:44.903Z,697.00
2023-05-05T06:39:16.013Z,699.00
2023-05-05T06:39:44.963Z,699.00
2023-05-05T06:40:14.990Z,700.00
2023-05-05T06:41:15.038Z,699.00
2023-05-05T06:41:45.028Z,700.00
2023-05-05T06:42:45.101Z,698.00
2023-05-05T06:43:15.104Z,699.00
2023-05-05T06:44:15.169Z,698.00
2023-05-05T06:44:45.296Z,698.00
2023-05-05T06:45:15.287Z,694.00
2023-05-05T06:45:45.292Z,692.00
2023-05-05T06:46:45.404Z,691.00
2023-05-05T06:47:15.452Z,692.00
2023-05-05T06:47:45.454Z,691.00
2023-05-05T06:48:15.427Z,691.00
2023-05-05T06:49:15.502Z,688.00
2023-05-05T06:49:45.534Z,688.00
2023-05-05T06:50:15.522Z,688.00